Weather reports worldwide

Advertisment
Langdon Bay, United Kingdom (3796): temperature & dewpoint: 14.07.2018 23:00:00 - 20.07.2018 23:00:00 (BST)Langdon Bay, United Kingdom (3796): wind speed: 14.07.2018 23:00:00 - 20.07.2018 23:00:00 (BST)Langdon Bay, United Kingdom (3796): wind direction: 14.07.2018 23:00:00 - 20.07.2018 23:00:00 (BST)Langdon Bay, United Kingdom (3796): reduced air pressure: 14.07.2018 23:00:00 - 20.07.2018 23:00:00 (BST)
Date & Time tt [°C] td [°C] ff [km/h] ff [kn] dd ppp [hPa]
20.07.2018 23:00:00 15,5 13,7 2 1 E 1013,7
20.07.2018 22:00:00 16,6 13,8 4 2 W 1013,6
20.07.2018 21:00:00 16,3 12,4 8 4 NW 1013,5
20.07.2018 20:00:00 16,8 12,5 9 5 WNW 1013,4
20.07.2018 19:00:00 17,0 12,6 5 3 WSW 1013,6
20.07.2018 18:00:00 18,0 11,7 5 3 SE 1013,7
20.07.2018 17:00:00 18,7 12,2 9 5 E 1013,8
20.07.2018 16:00:00 17,9 13,2 2 1 WSW 1014,6
20.07.2018 15:00:00 17,0 14,3 5 3 ESE 1015,2
20.07.2018 14:00:00 16,1 13,0 5 3 S 1015,5
20.07.2018 13:00:00 18,1 12,1 9 5 S 1015,6
20.07.2018 12:00:00 18,1 14,1 5 3 WSW 1015,5
20.07.2018 11:00:00 18,3 13,8 8 4 W 1015,4
20.07.2018 10:00:00 18,2 14,4 2 1 S 1015,5
20.07.2018 09:00:00 17,6 14,8 4 2 SE 1015,4
20.07.2018 08:00:00 17,1 14,4 5 3 ESE 1015,5
20.07.2018 07:00:00 17,0 13,7 11 6 E 1015,6
20.07.2018 06:00:00 16,9 12,4 13 7 E 1015,7
20.07.2018 05:00:00 17,0 12,9 8 4 SSE 1016,1
20.07.2018 04:00:00 17,5 15,9 11 6 E 1016,2
20.07.2018 03:00:00 17,4 15,2 18 10 E 1016,4
20.07.2018 02:00:00 17,6 14,9 22 12 E 1016,5
20.07.2018 01:00:00 17,6 14,3 24 13 E 1017,1
20.07.2018 00:00:00 17,1 13,6 21 11 E 1017,3
19.07.2018 23:00:00 16,7 13,6 21 11 E 1017,4
19.07.2018 22:00:00 17,0 12,3 24 13 E 1017,6
19.07.2018 21:00:00 17,1 13,2 21 11 ENE 1017,7
19.07.2018 20:00:00 17,9 13,2 22 12 ENE 1017,7
19.07.2018 19:00:00 19,5 11,5 22 12 ENE 1017,7
19.07.2018 18:00:00 19,7 10,9 26 14 ENE 1017,8
19.07.2018 17:00:00 21,4 8,8 26 14 ENE 1018,1
19.07.2018 16:00:00 22,0 10,3 28 15 ENE 1018,6
19.07.2018 15:00:00 22,9 12,3 22 12 ENE 1018,9
19.07.2018 14:00:00 22,5 11,2 21 11 ENE 1019,1
19.07.2018 13:00:00 22,9 12,1 21 11 ENE 1019,4
19.07.2018 12:00:00 21,7 11,9 16 9 E 1019,5
19.07.2018 11:00:00 20,1 14,5 13 7 E 1019,7
19.07.2018 10:00:00 20,8 13,8 15 8 E 1019,5
19.07.2018 09:00:00 19,4 16,9 13 7 E 1019,5
19.07.2018 08:00:00 19,4 17,2 8 4 E 1019,5
19.07.2018 07:00:00 17,5 17,4 5 3 E 1019,6
19.07.2018 06:00:00 15,6 15,4 8 4 E 1019,4
19.07.2018 05:00:00 15,5 15,1 9 5 E 1019,5
19.07.2018 04:00:00 15,4 14,9 9 5 E 1019,6
19.07.2018 03:00:00 15,4 14,2 9 5 E 1019,7
19.07.2018 02:00:00 15,5 13,2 11 6 E 1019,8
19.07.2018 01:00:00 15,1 12,5 16 9 ENE 1019,7
19.07.2018 00:00:00 15,0 10,8 15 8 ENE 1019,5
18.07.2018 23:00:00 16,1 10,5 11 6 E 1019,5
18.07.2018 22:00:00 14,5 11,4 8 4 ENE 1019,5
18.07.2018 21:00:00 16,4 11,1 5 3 NNW 1019,2
18.07.2018 20:00:00 18,6 11,8 8 4 W 1018,9
18.07.2018 19:00:00 19,7 11,9 8 4 WSW 1018,8
18.07.2018 18:00:00 18,8 13,6 15 8 WSW 1019,0
18.07.2018 17:00:00 19,3 14,4 9 5 SW 1019,1
18.07.2018 16:00:00 19,4 15,6 13 7 SSW 1019,2
18.07.2018 15:00:00 18,0 15,3 11 6 SW 1019,4
18.07.2018 14:00:00 20,4 15,6 11 6 SSW 1019,1
18.07.2018 13:00:00 18,4 14,2 15 8 SW 1019,2
18.07.2018 12:00:00 19,7 16,5 11 6 S 1019,2
18.07.2018 11:00:00 18,4 14,1 13 7 SSW 1019,3
18.07.2018 10:00:00 17,9 14,7 15 8 SW 1019,3
18.07.2018 09:00:00 17,8 14,0 5 3 SSW 1019,3
18.07.2018 08:00:00 17,7 13,5 5 3 W 1018,9
18.07.2018 07:00:00 15,4 12,7 11 6 W 1018,7
18.07.2018 06:00:00 14,2 12,0 13 7 WNW 1018,3
18.07.2018 05:00:00 13,5 11,7 13 7 W 1018,2
18.07.2018 04:00:00 13,7 11,7 16 9 W 1017,9
18.07.2018 03:00:00 13,6 11,7 15 8 W 1018,0
18.07.2018 02:00:00 13,7 11,8 11 6 W 1018,1
18.07.2018 01:00:00 14,2 12,4 13 7 W 1018,1
18.07.2018 00:00:00 14,6 12,2 15 8 W 1018,1
17.07.2018 23:00:00 15,6 11,7 18 10 W 1017,9
17.07.2018 22:00:00 16,2 14,3 16 9 WSW 1017,7
17.07.2018 21:00:00 16,3 14,6 18 10 WSW 1017,5
17.07.2018 20:00:00 17,1 14,2 28 15 WSW 1017,1
17.07.2018 19:00:00 17,7 14,2 22 12 WSW 1016,9
17.07.2018 18:00:00 18,3 14,0 22 12 SW 1016,8
17.07.2018 17:00:00 18,4 14,4 22 12 SW 1016,9
17.07.2018 16:00:00 19,1 13,7 24 13 SW 1017,0
17.07.2018 15:00:00 18,2 13,2 28 15 WSW 1017,1
17.07.2018 14:00:00 18,5 14,5 22 12 SW 1017,0
17.07.2018 13:00:00 18,4 13,9 26 14 SW 1016,9
17.07.2018 12:00:00 18,6 14,6 21 11 SW 1016,7
17.07.2018 11:00:00 21,3 11,2 18 10 W 1016,2
17.07.2018 10:00:00 19,4 10,8 22 12 W 1015,9
17.07.2018 09:00:00 17,7 11,6 22 12 W 1015,5
17.07.2018 08:00:00 16,5 11,3 18 10 W 1015,2
17.07.2018 07:00:00 15,3 11,3 18 10 W 1014,9
17.07.2018 06:00:00 14,5 10,9 16 9 W 1014,6
17.07.2018 05:00:00 15,4 11,8 16 9 W 1014,1
17.07.2018 04:00:00 16,0 13,4 16 9 W 1013,8
17.07.2018 03:00:00 16,4 14,3 15 8 W 1013,9
17.07.2018 02:00:00 15,9 13,8 13 7 W 1013,8
17.07.2018 01:00:00 16,5 13,4 15 8 WSW 1013,8
17.07.2018 00:00:00 17,4 12,5 15 8 WSW 1013,8
16.07.2018 23:00:00 17,9 14,2 15 8 WSW 1013,5
16.07.2018 22:00:00 18,9 13,4 16 9 WSW 1013,3
16.07.2018 21:00:00 20,2 13,6 15 8 WSW 1012,9
16.07.2018 20:00:00 20,5 14,3 18 10 WSW 1012,4
16.07.2018 19:00:00 21,4 13,5 16 9 WSW 1012,2
16.07.2018 18:00:00 22,4 14,6 13 7 WSW 1012,2
16.07.2018 17:00:00 21,8 15,6 13 7 WSW 1012,6
16.07.2018 16:00:00 22,3 13,6 16 9 WSW 1012,8
16.07.2018 15:00:00 21,9 14,6 13 7 SW 1013,2
16.07.2018 14:00:00 22,1 13,9 13 7 SSW 1013,5
16.07.2018 13:00:00 22,4 13,0 5 3 S 1013,4
16.07.2018 12:00:00 22,2 13,9 8 4 S 1013,7
16.07.2018 11:00:00 21,2 12,9 8 4 SSE 1013,8
16.07.2018 10:00:00 20,9 15,6 5 3 S 1013,7
16.07.2018 09:00:00 22,6 16,0 4 2 E 1013,6
16.07.2018 08:00:00 22,9 13,6 11 6 N 1013,4
16.07.2018 07:00:00 20,5 12,8 11 6 NNW 1013,4
16.07.2018 06:00:00 18,5 11,5 15 8 NW 1013,5
16.07.2018 05:00:00 18,3 11,5 15 8 NW 1013,7
16.07.2018 04:00:00 18,3 12,2 16 9 WNW 1013,8
16.07.2018 03:00:00 17,7 12,2 16 9 W 1014,2
16.07.2018 02:00:00 17,5 10,9 15 8 W 1014,5
16.07.2018 01:00:00 18,2 10,1 16 9 W 1014,8
16.07.2018 00:00:00 18,1 8,4 13 7 WSW 1015,2
15.07.2018 23:00:00 17,7 9,6 11 6 WSW 1015,1
15.07.2018 22:00:00 18,4 10,3 8 4 SW 1015,1
15.07.2018 21:00:00 19,5 12,2 8 4 SSW 1015,1
15.07.2018 20:00:00 20,5 12,2 5 3 S 1014,7
15.07.2018 19:00:00 21,5 11,6 5 3 SSE 1014,6
15.07.2018 18:00:00 23,1 11,3 5 3 SSE 1014,8
15.07.2018 17:00:00 22,5 11,9 5 3 SE 1015,2
15.07.2018 16:00:00 22,6 12,9 8 4 SE 1015,6
15.07.2018 15:00:00 21,8 14,1 9 5 ESE 1015,8
15.07.2018 14:00:00 22,2 14,4 11 6 ESE 1016,1
15.07.2018 13:00:00 21,3 14,8 11 6 ESE 1016,5
15.07.2018 12:00:00 20,7 15,4 9 5 ESE 1016,8
15.07.2018 11:00:00 20,9 15,7 11 6 ESE 1017,1
15.07.2018 10:00:00 21,4 16,8 13 7 E 1017,1
15.07.2018 09:00:00 22,3 16,1 5 3 NNE 1017,2
15.07.2018 08:00:00 20,2 17,7 8 4 N 1017,2
15.07.2018 07:00:00 17,2 17,1 9 5 N 1017,5
15.07.2018 06:00:00 15,2 14,9 8 4 N 1017,3
15.07.2018 05:00:00 15,0 14,4 5 3 NE 1017,3
15.07.2018 04:00:00 15,2 14,7 5 3 ENE 1017,8
15.07.2018 03:00:00 14,6 14,3 5 3 NNE 1018,1
15.07.2018 02:00:00 14,9 14,2 9 5 NNE 1018,5
15.07.2018 01:00:00 16,4 15,4 9 5 E 1018,6
15.07.2018 00:00:00 16,3 14,7 15 8 E 1018,7
14.07.2018 23:00:00 16,4 14,8 15 8 E 1018,7

tt = temperature
td = dewpoint
ff = wind speed
dd = wind direction
ppp = reduced air pressure

Next stations